Van Wert, IA

4:48 PM CST on February 01, 2015 (GMT -0600)
Chariton Municipal | Change Station
CLOSE
Current Station
Airport
Location: Chariton,
Elevation: 1050 ft
Nearby Weather Stations
Active Advisory: Winter Storm Warning Active Notice: Record Report

Elev 1050 ft 41.02 °N, 93.36 °W | Updated 13 minutes ago

Overcast
Overcast
18 °F
Feels Like 1 °F
N
21
Wind Variable Wind from North
Gusts 29 mph

Today
High -- | Low -- °F
--% Chance of Precip.
Yesterday
High -- | Low -- °F
Precip. -- in
7:25 AM 5:32 PM
Waxing Gibbous, 96% visible
Pressure 29.98 in
Visibility 1.8 miles
Clouds Scattered Clouds 1400 ft
Scattered Clouds 2300 ft
Windchill 1 °F
Dew Point 14 °F
Humidity 86%
Rainfall 0.15 in
Snow Depth Not available.
UV 0 out of 12
Pollen .10 out of 12
Air Quality Not available.
Flu Activity Not available.
METAR KCNC 012235Z AUTO 36018G25KT 1 3/4SM -SN SCT014 SCT023 M08/M10 A2998 RMK AO2

More Conditions Fewer Conditions

Pressure 29.98 in
Visibility 1.8 miles
Clouds Scattered Clouds 1400 ft
Scattered Clouds 2300 ft
Windchill 1 °F
Dew Point 14 °F
Humidity 86%
Rainfall 0.15 in
Snow Depth Not available.
UV 0 out of 12
Pollen .10 out of 12
Air Quality Not available.
Flu Activity Not available.
METAR KCNC 012235Z AUTO 36018G25KT 1 3/4SM -SN SCT014 SCT023 M08/M10 A2998 RMK AO2

More Conditions Fewer Conditions

10-Day Weather Forecast

Almanac

Astronomy

Feb. 01, 2015 Rise Set
Actual Time
Civil Twilight
Nautical Twilight
Astronomical Twilight
Moon
Length of Visible Light
Length of Day
Tomorrow will be .
, % of the Moon is Illuminated

Today's Extremes

State Highs State Lows

Community

WunderPhotos

Upload Photos

1,792,581 photos uploaded!

WunderBlogs® & News

Nearby

Air Quality

  Air Quality AQ Index Pollutant
Not available.

Snow Depth

Station Depth Elevation

Earthquake Activity

City Distance Mag. Time & Date
Minimum magnitude displayed is 2.5.

Coastal Water Temperatures

Place Temperature

Nearby Weather Stations